sensor_id;sensor_type;location;lat;lon;timestamp;pressure;altitude;pressure_sealevel;temperature;humidity
8641;BME280;4358;42.100;25.222;2023-01-28T00:00:53;99375.34;;;3.98;100.00
8641;BME280;4358;42.100;25.222;2023-01-28T00:03:20;99382.41;;;3.98;100.00
8641;BME280;4358;42.100;25.222;2023-01-28T00:05:47;99371.03;;;3.97;100.00
8641;BME280;4358;42.100;25.222;2023-01-28T00:08:14;99367.47;;;3.98;100.00
8641;BME280;4358;42.100;25.222;2023-01-28T00:10:42;99372.28;;;4.07;100.00
8641;BME280;4358;42.100;25.222;2023-01-28T00:13:11;99377.38;;;4.10;100.00
8641;BME280;4358;42.100;25.222;2023-01-28T00:15:39;99380.78;;;4.12;100.00
8641;BME280;4358;42.100;25.222;2023-01-28T00:18:06;99382.63;;;4.10;100.00
8641;BME280;4358;42.100;25.222;2023-01-28T00:20:32;99388.97;;;4.06;100.00
8641;BME280;4358;42.100;25.222;2023-01-28T00:23:00;99388.03;;;4.07;100.00
8641;BME280;4358;42.100;25.222;2023-01-28T00:25:27;99388.72;;;4.11;100.00
8641;BME280;4358;42.100;25.222;2023-01-28T00:27:56;99339.97;;;3.88;100.00
8641;BME280;4358;42.100;25.222;2023-01-28T00:30:22;99388.28;;;4.20;100.00
8641;BME280;4358;42.100;25.222;2023-01-28T00:32:49;99392.78;;;4.18;100.00
8641;BME280;4358;42.100;25.222;2023-01-28T00:35:16;99381.66;;;4.13;100.00
8641;BME280;4358;42.100;25.222;2023-01-28T00:37:44;99392.38;;;4.25;100.00
8641;BME280;4358;42.100;25.222;2023-01-28T00:40:12;99401.19;;;4.24;100.00
8641;BME280;4358;42.100;25.222;2023-01-28T00:42:39;99408.31;;;4.22;100.00
8641;BME280;4358;42.100;25.222;2023-01-28T00:45:09;99394.25;;;4.23;100.00
8641;BME280;4358;42.100;25.222;2023-01-28T00:47:36;99411.69;;;4.24;100.00
8641;BME280;4358;42.100;25.222;2023-01-28T00:50:03;99416.81;;;4.28;100.00
8641;BME280;4358;42.100;25.222;2023-01-28T00:52:31;99416.75;;;4.29;100.00
8641;BME280;4358;42.100;25.222;2023-01-28T00:54:57;99419.66;;;4.23;100.00
8641;BME280;4358;42.100;25.222;2023-01-28T00:57:25;99422.34;;;4.21;100.00
8641;BME280;4358;42.100;25.222;2023-01-28T00:59:52;99403.91;;;4.23;100.00
8641;BME280;4358;42.100;25.222;2023-01-28T01:02:20;99415.03;;;4.28;100.00
8641;BME280;4358;42.100;25.222;2023-01-28T01:04:47;99420.97;;;4.32;100.00
8641;BME280;4358;42.100;25.222;2023-01-28T01:07:25;99420.06;;;4.33;100.00
8641;BME280;4358;42.100;25.222;2023-01-28T01:09:59;99430.69;;;4.30;100.00
8641;BME280;4358;42.100;25.222;2023-01-28T01:12:26;99422.97;;;4.26;100.00
8641;BME280;4358;42.100;25.222;2023-01-28T01:14:53;99418.88;;;4.21;100.00
8641;BME280;4358;42.100;25.222;2023-01-28T01:17:21;99421.34;;;4.24;100.00
8641;BME280;4358;42.100;25.222;2023-01-28T01:19:48;99422.19;;;4.24;100.00
8641;BME280;4358;42.100;25.222;2023-01-28T01:22:15;99429.53;;;4.18;100.00
8641;BME280;4358;42.100;25.222;2023-01-28T01:24:42;99423.34;;;4.19;100.00
8641;BME280;4358;42.100;25.222;2023-01-28T01:27:09;99432.28;;;4.34;100.00
8641;BME280;4358;42.100;25.222;2023-01-28T01:29:35;99411.84;;;4.21;100.00
8641;BME280;4358;42.100;25.222;2023-01-28T01:32:03;99419.03;;;4.18;100.00
8641;BME280;4358;42.100;25.222;2023-01-28T01:34:31;99417.44;;;4.33;100.00
8641;BME280;4358;42.100;25.222;2023-01-28T01:36:58;99420.63;;;4.39;100.00
8641;BME280;4358;42.100;25.222;2023-01-28T01:39:26;99424.63;;;4.29;100.00
8641;BME280;4358;42.100;25.222;2023-01-28T01:41:52;99425.16;;;4.36;100.00
8641;BME280;4358;42.100;25.222;2023-01-28T01:44:58;99434.41;;;4.25;100.00
8641;BME280;4358;42.100;25.222;2023-01-28T01:47:30;99435.13;;;4.29;100.00
8641;BME280;4358;42.100;25.222;2023-01-28T01:50:03;99436.97;;;4.27;100.00
8641;BME280;4358;42.100;25.222;2023-01-28T01:52:32;99429.78;;;4.13;100.00
8641;BME280;4358;42.100;25.222;2023-01-28T01:55:03;99432.31;;;4.15;100.00
8641;BME280;4358;42.100;25.222;2023-01-28T01:57:33;99437.00;;;4.08;100.00
8641;BME280;4358;42.100;25.222;2023-01-28T02:00:05;99428.97;;;4.11;100.00
8641;BME280;4358;42.100;25.222;2023-01-28T02:02:36;99422.66;;;4.15;100.00
8641;BME280;4358;42.100;25.222;2023-01-28T02:05:06;99428.94;;;4.30;100.00
8641;BME280;4358;42.100;25.222;2023-01-28T02:07:34;99436.38;;;4.39;100.00
8641;BME280;4358;42.100;25.222;2023-01-28T02:10:02;99442.63;;;4.37;100.00
8641;BME280;4358;42.100;25.222;2023-01-28T02:12:32;99447.56;;;4.43;100.00
8641;BME280;4358;42.100;25.222;2023-01-28T02:15:02;99450.81;;;4.48;100.00
8641;BME280;4358;42.100;25.222;2023-01-28T02:17:31;99447.97;;;4.52;100.00
8641;BME280;4358;42.100;25.222;2023-01-28T02:20:00;99454.41;;;4.64;100.00
8641;BME280;4358;42.100;25.222;2023-01-28T02:23:01;99449.00;;;4.50;100.00
8641;BME280;4358;42.100;25.222;2023-01-28T02:25:42;99437.38;;;4.54;100.00
8641;BME280;4358;42.100;25.222;2023-01-28T02:28:22;99460.66;;;4.61;100.00
8641;BME280;4358;42.100;25.222;2023-01-28T02:30:56;99453.16;;;4.71;100.00
8641;BME280;4358;42.100;25.222;2023-01-28T02:33:29;99461.50;;;4.79;100.00
8641;BME280;4358;42.100;25.222;2023-01-28T02:36:02;99470.03;;;4.84;100.00
8641;BME280;4358;42.100;25.222;2023-01-28T02:38:37;99467.84;;;4.92;100.00
8641;BME280;4358;42.100;25.222;2023-01-28T02:41:12;99466.91;;;4.93;100.00
8641;BME280;4358;42.100;25.222;2023-01-28T02:43:44;99473.94;;;4.93;100.00
8641;BME280;4358;42.100;25.222;2023-01-28T02:46:17;99480.38;;;5.04;100.00
8641;BME280;4358;42.100;25.222;2023-01-28T02:49:06;99480.06;;;5.10;100.00
8641;BME280;4358;42.100;25.222;2023-01-28T02:51:47;99481.66;;;5.13;100.00
8641;BME280;4358;42.100;25.222;2023-01-28T02:54:21;99480.38;;;5.22;100.00
8641;BME280;4358;42.100;25.222;2023-01-28T02:56:58;99480.38;;;5.22;100.00
8641;BME280;4358;42.100;25.222;2023-01-28T02:59:34;99483.69;;;5.25;100.00
8641;BME280;4358;42.100;25.222;2023-01-28T03:02:11;99487.00;;;5.29;100.00
8641;BME280;4358;42.100;25.222;2023-01-28T03:04:44;99486.84;;;5.32;100.00
8641;BME280;4358;42.100;25.222;2023-01-28T03:07:14;99485.81;;;5.34;100.00
8641;BME280;4358;42.100;25.222;2023-01-28T03:09:45;99490.41;;;5.31;100.00
8641;BME280;4358;42.100;25.222;2023-01-28T03:12:16;99479.88;;;5.31;100.00
8641;BME280;4358;42.100;25.222;2023-01-28T03:15:06;99474.00;;;5.26;100.00
8641;BME280;4358;42.100;25.222;2023-01-28T03:17:54;99481.41;;;5.35;100.00
8641;BME280;4358;42.100;25.222;2023-01-28T03:20:47;99460.13;;;5.06;100.00
8641;BME280;4358;42.100;25.222;2023-01-28T03:23:37;99470.09;;;4.83;100.00
8641;BME280;4358;42.100;25.222;2023-01-28T03:26:25;99485.19;;;4.96;100.00
8641;BME280;4358;42.100;25.222;2023-01-28T03:29:13;99475.28;;;4.84;100.00
8641;BME280;4358;42.100;25.222;2023-01-28T03:32:00;99482.06;;;4.88;100.00
8641;BME280;4358;42.100;25.222;2023-01-28T03:34:46;99494.84;;;4.96;100.00
8641;BME280;4358;42.100;25.222;2023-01-28T03:37:31;99485.56;;;4.89;100.00
8641;BME280;4358;42.100;25.222;2023-01-28T03:40:01;99481.31;;;4.86;100.00
8641;BME280;4358;42.100;25.222;2023-01-28T03:42:30;99473.81;;;4.79;100.00
8641;BME280;4358;42.100;25.222;2023-01-28T03:44:58;99489.22;;;4.86;100.00
8641;BME280;4358;42.100;25.222;2023-01-28T03:47:28;99492.59;;;4.88;100.00
8641;BME280;4358;42.100;25.222;2023-01-28T03:49:57;99495.22;;;4.88;100.00
8641;BME280;4358;42.100;25.222;2023-01-28T03:52:27;99493.91;;;4.80;100.00
8641;BME280;4358;42.100;25.222;2023-01-28T03:54:55;99489.22;;;4.86;100.00
8641;BME280;4358;42.100;25.222;2023-01-28T03:57:24;99492.59;;;4.88;100.00
8641;BME280;4358;42.100;25.222;2023-01-28T03:59:52;99496.88;;;4.91;100.00
8641;BME280;4358;42.100;25.222;2023-01-28T04:02:21;99499.19;;;4.97;100.00
8641;BME280;4358;42.100;25.222;2023-01-28T04:04:49;99504.44;;;4.97;100.00
8641;BME280;4358;42.100;25.222;2023-01-28T04:07:16;99506.22;;;4.96;100.00
8641;BME280;4358;42.100;25.222;2023-01-28T04:09:43;99508.69;;;4.99;100.00
8641;BME280;4358;42.100;25.222;2023-01-28T04:12:10;99503.44;;;4.99;100.00
8641;BME280;4358;42.100;25.222;2023-01-28T04:14:37;99503.91;;;5.07;100.00
8641;BME280;4358;42.100;25.222;2023-01-28T04:17:05;99509.31;;;5.04;100.00
8641;BME280;4358;42.100;25.222;2023-01-28T04:19:35;99511.16;;;5.02;100.00
8641;BME280;4358;42.100;25.222;2023-01-28T04:22:05;99514.72;;;5.01;100.00
8641;BME280;4358;42.100;25.222;2023-01-28T04:24:32;99519.03;;;5.02;100.00
8641;BME280;4358;42.100;25.222;2023-01-28T04:26:59;99521.38;;;5.08;100.00
8641;BME280;4358;42.100;25.222;2023-01-28T04:29:26;99523.94;;;5.10;100.00
8641;BME280;4358;42.100;25.222;2023-01-28T04:31:52;99519.53;;;5.10;100.00
8641;BME280;4358;42.100;25.222;2023-01-28T04:34:20;99527.41;;;5.10;100.00
8641;BME280;4358;42.100;25.222;2023-01-28T04:36:46;99525.03;;;5.06;100.00
8641;BME280;4358;42.100;25.222;2023-01-28T04:39:15;99527.78;;;5.03;100.00
8641;BME280;4358;42.100;25.222;2023-01-28T04:41:42;99532.06;;;5.05;100.00
8641;BME280;4358;42.100;25.222;2023-01-28T04:44:09;99539.16;;;5.03;100.00
8641;BME280;4358;42.100;25.222;2023-01-28T04:46:35;99542.72;;;5.02;100.00
8641;BME280;4358;42.100;25.222;2023-01-28T04:49:02;99544.41;;;5.03;100.00
8641;BME280;4358;42.100;25.222;2023-01-28T04:51:29;99547.16;;;5.02;100.00
8641;BME280;4358;42.100;25.222;2023-01-28T04:53:56;99549.38;;;5.09;100.00
8641;BME280;4358;42.100;25.222;2023-01-28T04:56:24;99543.56;;;5.03;100.00
8641;BME280;4358;42.100;25.222;2023-01-28T04:58:51;99550.53;;;5.04;100.00
8641;BME280;4358;42.100;25.222;2023-01-28T05:01:18;99549.97;;;4.97;100.00
8641;BME280;4358;42.100;25.222;2023-01-28T05:03:45;99554.31;;;4.98;100.00
8641;BME280;4358;42.100;25.222;2023-01-28T05:06:12;99543.28;;;4.92;100.00
8641;BME280;4358;42.100;25.222;2023-01-28T05:08:39;99563.22;;;4.96;100.00
8641;BME280;4358;42.100;25.222;2023-01-28T05:11:06;99566.84;;;4.93;100.00
8641;BME280;4358;42.100;25.222;2023-01-28T05:13:34;99562.50;;;4.92;100.00
8641;BME280;4358;42.100;25.222;2023-01-28T05:16:01;99563.53;;;4.90;100.00
8641;BME280;4358;42.100;25.222;2023-01-28T05:18:28;99573.78;;;4.77;100.00
8641;BME280;4358;42.100;25.222;2023-01-28T05:20:55;99560.78;;;4.74;100.00
8641;BME280;4358;42.100;25.222;2023-01-28T05:23:22;99564.97;;;4.78;100.00
8641;BME280;4358;42.100;25.222;2023-01-28T05:25:49;99572.22;;;4.73;100.00
8641;BME280;4358;42.100;25.222;2023-01-28T05:28:16;99577.56;;;4.72;100.00
8641;BME280;4358;42.100;25.222;2023-01-28T05:30:44;99577.41;;;4.75;100.00
8641;BME280;4358;42.100;25.222;2023-01-28T05:33:11;99587.72;;;4.79;100.00
8641;BME280;4358;42.100;25.222;2023-01-28T05:35:37;99592.19;;;4.77;100.00
8641;BME280;4358;42.100;25.222;2023-01-28T05:38:04;99592.97;;;4.79;100.00
8641;BME280;4358;42.100;25.222;2023-01-28T05:40:33;99590.38;;;4.60;100.00
8641;BME280;4358;42.100;25.222;2023-01-28T05:43:00;99598.97;;;4.64;100.00
8641;BME280;4358;42.100;25.222;2023-01-28T05:45:27;99606.00;;;4.63;100.00
8641;BME280;4358;42.100;25.222;2023-01-28T05:47:55;99608.91;;;4.76;100.00
8641;BME280;4358;42.100;25.222;2023-01-28T05:50:22;99608.75;;;4.79;100.00
8641;BME280;4358;42.100;25.222;2023-01-28T05:52:49;99606.28;;;4.76;100.00
8641;BME280;4358;42.100;25.222;2023-01-28T05:55:16;99606.13;;;4.79;100.00
8641;BME280;4358;42.100;25.222;2023-01-28T05:57:43;99605.03;;;4.83;100.00
8641;BME280;4358;42.100;25.222;2023-01-28T06:00:11;99613.72;;;4.85;100.00
8641;BME280;4358;42.100;25.222;2023-01-28T06:02:39;99621.31;;;4.91;100.00
8641;BME280;4358;42.100;25.222;2023-01-28T06:05:08;99626.41;;;4.94;100.00
8641;BME280;4358;42.100;25.222;2023-01-28T06:07:35;99629.94;;;4.93;100.00
8641;BME280;4358;42.100;25.222;2023-01-28T06:10:02;99632.47;;;4.96;100.00
8641;BME280;4358;42.100;25.222;2023-01-28T06:12:29;99637.56;;;4.99;100.00
8641;BME280;4358;42.100;25.222;2023-01-28T06:14:56;99643.44;;;5.04;100.00
8641;BME280;4358;42.100;25.222;2023-01-28T06:17:23;99646.06;;;5.04;100.00
8641;BME280;4358;42.100;25.222;2023-01-28T06:19:50;99657.22;;;5.09;100.00
8641;BME280;4358;42.100;25.222;2023-01-28T06:22:18;99652.75;;;5.11;100.00
8641;BME280;4358;42.100;25.222;2023-01-28T06:24:45;99662.13;;;5.17;100.00
8641;BME280;4358;42.100;25.222;2023-01-28T06:27:12;99661.41;;;5.13;100.00
8641;BME280;4358;42.100;25.222;2023-01-28T06:29:38;99652.75;;;5.11;100.00
8641;BME280;4358;42.100;25.222;2023-01-28T06:32:05;99662.19;;;5.16;100.00
8641;BME280;4358;42.100;25.222;2023-01-28T06:34:32;99664.13;;;5.12;100.00
8641;BME280;4358;42.100;25.222;2023-01-28T06:36:59;99664.13;;;5.12;100.00
8641;BME280;4358;42.100;25.222;2023-01-28T06:39:30;99665.41;;;5.03;100.00
8641;BME280;4358;42.100;25.222;2023-01-28T06:41:58;99666.53;;;4.98;100.00
8641;BME280;4358;42.100;25.222;2023-01-28T06:44:25;99651.91;;;4.92;100.00
8641;BME280;4358;42.100;25.222;2023-01-28T06:46:52;99679.47;;;5.02;100.00
8641;BME280;4358;42.100;25.222;2023-01-28T06:49:18;99673.69;;;4.96;100.00
8641;BME280;4358;42.100;25.222;2023-01-28T06:51:46;99679.91;;;4.93;100.00
8641;BME280;4358;42.100;25.222;2023-01-28T06:54:13;99679.00;;;4.94;100.00
8641;BME280;4358;42.100;25.222;2023-01-28T06:56:41;99682.47;;;4.95;100.00
8641;BME280;4358;42.100;25.222;2023-01-28T06:59:08;99692.72;;;4.82;100.00
8641;BME280;4358;42.100;25.222;2023-01-28T07:01:35;99696.41;;;4.78;100.00
8641;BME280;4358;42.100;25.222;2023-01-28T07:04:02;99700.91;;;4.76;100.00
8641;BME280;4358;42.100;25.222;2023-01-28T07:06:29;99702.22;;;4.66;100.00
8641;BME280;4358;42.100;25.222;2023-01-28T07:08:56;99712.91;;;4.63;100.00
8641;BME280;4358;42.100;25.222;2023-01-28T07:11:23;99708.50;;;4.63;100.00
8641;BME280;4358;42.100;25.222;2023-01-28T07:13:51;99706.09;;;4.59;100.00
8641;BME280;4358;42.100;25.222;2023-01-28T07:16:18;99716.72;;;4.56;100.00
8641;BME280;4358;42.100;25.222;2023-01-28T07:18:45;99715.59;;;4.61;100.00
8641;BME280;4358;42.100;25.222;2023-01-28T07:21:12;99722.13;;;4.72;100.00
8641;BME280;4358;42.100;25.222;2023-01-28T07:23:38;99721.84;;;4.59;100.00
8641;BME280;4358;42.100;25.222;2023-01-28T07:26:05;99731.78;;;4.71;100.00
8641;BME280;4358;42.100;25.222;2023-01-28T07:28:32;99740.63;;;4.70;100.00
8641;BME280;4358;42.100;25.222;2023-01-28T07:31:00;99749.69;;;4.63;100.00
8641;BME280;4358;42.100;25.222;2023-01-28T07:33:27;99749.00;;;4.59;100.00
8641;BME280;4358;42.100;25.222;2023-01-28T07:35:54;99749.28;;;4.72;100.00
8641;BME280;4358;42.100;25.222;2023-01-28T07:38:21;99750.56;;;4.82;100.00
8641;BME280;4358;42.100;25.222;2023-01-28T07:40:48;99744.59;;;4.97;100.00
8641;BME280;4358;42.100;25.222;2023-01-28T07:43:14;99745.31;;;5.01;100.00
8641;BME280;4358;42.100;25.222;2023-01-28T07:45:41;99756.25;;;5.10;100.00
8641;BME280;4358;42.100;25.222;2023-01-28T07:48:11;99769.19;;;5.15;100.00
8641;BME280;4358;42.100;25.222;2023-01-28T07:50:38;99765.72;;;5.15;100.00
8641;BME280;4358;42.100;25.222;2023-01-28T07:53:07;99775.25;;;5.17;100.00
8641;BME280;4358;42.100;25.222;2023-01-28T07:55:35;99774.59;;;5.12;100.00
8641;BME280;4358;42.100;25.222;2023-01-28T07:58:04;99777.03;;;5.17;100.00
8641;BME280;4358;42.100;25.222;2023-01-28T08:00:33;99790.41;;;5.12;100.00
8641;BME280;4358;42.100;25.222;2023-01-28T08:03:02;99781.28;;;5.19;100.00
8641;BME280;4358;42.100;25.222;2023-01-28T08:05:37;99783.50;;;5.28;100.00
8641;BME280;4358;42.100;25.222;2023-01-28T08:08:06;99785.91;;;5.33;100.00
8641;BME280;4358;42.100;25.222;2023-01-28T08:10:33;99793.50;;;5.39;100.00
8641;BME280;4358;42.100;25.222;2023-01-28T08:13:00;99792.09;;;5.32;100.00
8641;BME280;4358;42.100;25.222;2023-01-28T08:15:27;99789.88;;;5.41;100.00
8641;BME280;4358;42.100;25.222;2023-01-28T08:17:56;99794.31;;;5.58;100.00
8641;BME280;4358;42.100;25.222;2023-01-28T08:20:25;99791.06;;;5.53;100.00
8641;BME280;4358;42.100;25.222;2023-01-28T08:23:04;99805.31;;;5.66;100.00
8641;BME280;4358;42.100;25.222;2023-01-28T08:25:32;99806.75;;;5.73;100.00
8641;BME280;4358;42.100;25.222;2023-01-28T08:27:59;99798.38;;;5.82;100.00
8641;BME280;4358;42.100;25.222;2023-01-28T08:30:26;99809.56;;;5.87;100.00
8641;BME280;4358;42.100;25.222;2023-01-28T08:32:54;99804.19;;;5.90;100.00
8641;BME280;4358;42.100;25.222;2023-01-28T08:35:21;99805.53;;;5.80;100.00
8641;BME280;4358;42.100;25.222;2023-01-28T08:37:48;99805.66;;;5.77;100.00
8641;BME280;4358;42.100;25.222;2023-01-28T08:40:16;99808.44;;;5.93;100.00
8641;BME280;4358;42.100;25.222;2023-01-28T08:42:46;99808.69;;;6.06;100.00
8641;BME280;4358;42.100;25.222;2023-01-28T08:45:13;99797.97;;;6.09;100.00
8641;BME280;4358;42.100;25.222;2023-01-28T08:47:47;99816.59;;;6.06;100.00
8641;BME280;4358;42.100;25.222;2023-01-28T08:50:14;99826.81;;;6.12;100.00
8641;BME280;4358;42.100;25.222;2023-01-28T08:52:41;99820.31;;;6.02;100.00
8641;BME280;4358;42.100;25.222;2023-01-28T08:55:09;99817.47;;;5.87;100.00
8641;BME280;4358;42.100;25.222;2023-01-28T08:57:37;99821.16;;;5.83;100.00
8641;BME280;4358;42.100;25.222;2023-01-28T09:00:05;99828.16;;;5.84;100.00
8641;BME280;4358;42.100;25.222;2023-01-28T09:02:33;99824.59;;;5.85;100.00
8641;BME280;4358;42.100;25.222;2023-01-28T09:05:00;99821.38;;;5.97;100.00
8641;BME280;4358;42.100;25.222;2023-01-28T09:07:27;99823.38;;;5.92;100.00
8641;BME280;4358;42.100;25.222;2023-01-28T09:09:54;99824.84;;;5.98;100.00
8641;BME280;4358;42.100;25.222;2023-01-28T09:12:21;99818.91;;;5.94;100.00
8641;BME280;4358;42.100;25.222;2023-01-28T09:14:49;99817.34;;;5.90;100.00
8641;BME280;4358;42.100;25.222;2023-01-28T09:17:16;99822.63;;;5.90;100.00
8641;BME280;4358;42.100;25.222;2023-01-28T09:19:43;99814.84;;;5.87;100.00
8641;BME280;4358;42.100;25.222;2023-01-28T09:22:10;99820.19;;;5.86;100.00
8641;BME280;4358;42.100;25.222;2023-01-28T09:24:37;99822.75;;;5.87;100.00
8641;BME280;4358;42.100;25.222;2023-01-28T09:27:04;99822.75;;;5.87;100.00
8641;BME280;4358;42.100;25.222;2023-01-28T09:29:32;99821.88;;;5.87;100.00
8641;BME280;4358;42.100;25.222;2023-01-28T09:32:01;99815.19;;;5.99;100.00
8641;BME280;4358;42.100;25.222;2023-01-28T09:34:28;99814.47;;;5.95;100.00
8641;BME280;4358;42.100;25.222;2023-01-28T09:36:55;99814.84;;;5.87;100.00
8641;BME280;4358;42.100;25.222;2023-01-28T09:39:21;99814.78;;;5.89;100.00
8641;BME280;4358;42.100;25.222;2023-01-28T09:41:59;99811.13;;;5.91;100.00
8641;BME280;4358;42.100;25.222;2023-01-28T09:44:39;99817.56;;;6.03;100.00
8641;BME280;4358;42.100;25.222;2023-01-28T09:47:21;99819.84;;;6.11;100.00
8641;BME280;4358;42.100;25.222;2023-01-28T09:49:52;99816.41;;;6.09;100.00
8641;BME280;4358;42.100;25.222;2023-01-28T09:52:22;99816.88;;;6.00;100.00
8641;BME280;4358;42.100;25.222;2023-01-28T09:54:54;99819.22;;;6.06;100.00
8641;BME280;4358;42.100;25.222;2023-01-28T09:57:25;99808.44;;;6.10;100.00
8641;BME280;4358;42.100;25.222;2023-01-28T09:59:56;99802.31;;;6.10;100.00
8641;BME280;4358;42.100;25.222;2023-01-28T10:02:44;99807.75;;;6.07;100.00
8641;BME280;4358;42.100;25.222;2023-01-28T10:05:19;99807.28;;;6.16;100.00
8641;BME280;4358;42.100;25.222;2023-01-28T10:07:56;99814.97;;;6.20;100.00
8641;BME280;4358;42.100;25.222;2023-01-28T10:10:27;99802.94;;;6.32;100.00
8641;BME280;4358;42.100;25.222;2023-01-28T10:13:03;99811.47;;;6.37;100.00
8641;BME280;4358;42.100;25.222;2023-01-28T10:16:05;99813.00;;;6.41;100.00
8641;BME280;4358;42.100;25.222;2023-01-28T10:18:42;99815.19;;;6.33;100.00
8641;BME280;4358;42.100;25.222;2023-01-28T10:21:12;99809.31;;;6.28;100.00
8641;BME280;4358;42.100;25.222;2023-01-28T10:23:51;99803.09;;;6.29;100.00
8641;BME280;4358;42.100;25.222;2023-01-28T10:26:33;99805.72;;;6.46;100.00
8641;BME280;4358;42.100;25.222;2023-01-28T10:29:05;99807.97;;;6.54;100.00
8641;BME280;4358;42.100;25.222;2023-01-28T10:31:39;99811.13;;;6.60;100.00
8641;BME280;4358;42.100;25.222;2023-01-28T10:34:10;99807.72;;;6.58;100.00
8641;BME280;4358;42.100;25.222;2023-01-28T10:36:37;99814.53;;;6.62;100.00
8641;BME280;4358;42.100;25.222;2023-01-28T10:39:04;99806.63;;;6.62;100.00
8641;BME280;4358;42.100;25.222;2023-01-28T10:41:33;99811.84;;;6.64;100.00
8641;BME280;4358;42.100;25.222;2023-01-28T10:44:00;99814.13;;;6.70;100.00
8641;BME280;4358;42.100;25.222;2023-01-28T10:46:28;99808.03;;;6.69;100.00
8641;BME280;4358;42.100;25.222;2023-01-28T10:49:03;99808.34;;;6.63;100.00
8641;BME280;4358;42.100;25.222;2023-01-28T10:51:35;99792.66;;;6.60;100.00
8641;BME280;4358;42.100;25.222;2023-01-28T10:54:17;99809.19;;;6.64;100.00
8641;BME280;4358;42.100;25.222;2023-01-28T10:56:44;99794.22;;;6.64;100.00
8641;BME280;4358;42.100;25.222;2023-01-28T10:59:19;99806.84;;;6.75;100.00
8641;BME280;4358;42.100;25.222;2023-01-28T11:01:49;99811.47;;;6.87;100.00
8641;BME280;4358;42.100;25.222;2023-01-28T11:04:21;99814.03;;;6.89;100.00
8641;BME280;4358;42.100;25.222;2023-01-28T11:06:58;99811.69;;;6.82;100.00
8641;BME280;4358;42.100;25.222;2023-01-28T11:09:27;99808.66;;;6.90;100.00
8641;BME280;4358;42.100;25.222;2023-01-28T11:11:55;99819.84;;;6.95;100.00
8641;BME280;4358;42.100;25.222;2023-01-28T11:14:25;99814.69;;;6.92;100.00
8641;BME280;4358;42.100;25.222;2023-01-28T11:16:54;99816.75;;;7.03;100.00
8641;BME280;4358;42.100;25.222;2023-01-28T11:19:28;99816.63;;;7.06;100.00
8641;BME280;4358;42.100;25.222;2023-01-28T11:21:58;99812.28;;;7.05;100.00
8641;BME280;4358;42.100;25.222;2023-01-28T11:24:27;99804.97;;;7.10;100.00
8641;BME280;4358;42.100;25.222;2023-01-28T11:26:56;99811.69;;;7.15;100.00
8641;BME280;4358;42.100;25.222;2023-01-28T11:29:27;99805.03;;;7.24;100.00
8641;BME280;4358;42.100;25.222;2023-01-28T11:31:57;99804.91;;;7.27;100.00
8641;BME280;4358;42.100;25.222;2023-01-28T11:34:27;99810.41;;;7.22;100.00
8641;BME280;4358;42.100;25.222;2023-01-28T11:37:02;99807.34;;;7.30;100.00
8641;BME280;4358;42.100;25.222;2023-01-28T11:39:30;99804.91;;;7.27;100.00
8641;BME280;4358;42.100;25.222;2023-01-28T11:42:17;99809.75;;;7.35;100.00
8641;BME280;4358;42.100;25.222;2023-01-28T11:44:45;99808.72;;;7.37;100.00
8641;BME280;4358;42.100;25.222;2023-01-28T11:47:29;99806.09;;;7.37;100.00
8641;BME280;4358;42.100;25.222;2023-01-28T11:50:21;99812.22;;;7.38;100.00
8641;BME280;4358;42.100;25.222;2023-01-28T11:52:59;99830.13;;;7.48;100.00
8641;BME280;4358;42.100;25.222;2023-01-28T11:55:50;99828.13;;;7.36;100.00
8641;BME280;4358;42.100;25.222;2023-01-28T11:58:32;99817.50;;;7.38;100.00
8641;BME280;4358;42.100;25.222;2023-01-28T12:01:05;99823.53;;;7.40;100.00
8641;BME280;4358;42.100;25.222;2023-01-28T12:04:00;99821.34;;;7.32;100.00
8641;BME280;4358;42.100;25.222;2023-01-28T12:06:49;99828.28;;;7.33;100.00
8641;BME280;4358;42.100;25.222;2023-01-28T12:09:27;99827.38;;;7.34;100.00
8641;BME280;4358;42.100;25.222;2023-01-28T12:12:09;99833.09;;;7.42;100.00
8641;BME280;4358;42.100;25.222;2023-01-28T12:15:15;99836.72;;;7.40;100.00
8641;BME280;4358;42.100;25.222;2023-01-28T12:17:56;99824.72;;;7.34;100.00
8641;BME280;4358;42.100;25.222;2023-01-28T12:20:28;99835.13;;;7.37;100.00
8641;BME280;4358;42.100;25.222;2023-01-28T12:23:06;99831.38;;;7.41;100.00
8641;BME280;4358;42.100;25.222;2023-01-28T12:25:45;99834.03;;;7.41;100.00
8641;BME280;4358;42.100;25.222;2023-01-28T12:28:20;99839.38;;;7.40;100.00
8641;BME280;4358;42.100;25.222;2023-01-28T12:31:18;99837.19;;;7.32;100.00
8641;BME280;4358;42.100;25.222;2023-01-28T12:34:03;99836.06;;;7.36;100.00
8641;BME280;4358;42.100;25.222;2023-01-28T12:36:42;99824.44;;;7.23;100.00
8641;BME280;4358;42.100;25.222;2023-01-28T12:39:23;99837.91;;;7.34;100.00
8641;BME280;4358;42.100;25.222;2023-01-28T12:42:04;99841.66;;;7.30;100.00
8641;BME280;4358;42.100;25.222;2023-01-28T12:44:35;99830.09;;;7.33;100.00
8641;BME280;4358;42.100;25.222;2023-01-28T12:47:07;99846.41;;;7.23;100.00
8641;BME280;4358;42.100;25.222;2023-01-28T12:49:39;99850.69;;;7.26;100.00
8641;BME280;4358;42.100;25.222;2023-01-28T12:52:12;99851.53;;;7.11;100.00
8641;BME280;4358;42.100;25.222;2023-01-28T12:54:46;99856.09;;;7.07;100.00
8641;BME280;4358;42.100;25.222;2023-01-28T12:57:23;99860.38;;;7.10;100.00
8641;BME280;4358;42.100;25.222;2023-01-28T12:59:56;99859.69;;;7.06;100.00
8641;BME280;4358;42.100;25.222;2023-01-28T13:02:31;99845.03;;;7.01;100.00
8641;BME280;4358;42.100;25.222;2023-01-28T13:05:09;99862.50;;;7.19;100.00
8641;BME280;4358;42.100;25.222;2023-01-28T13:07:43;99860.50;;;7.07;100.00
8641;BME280;4358;42.100;25.222;2023-01-28T13:10:20;99865.66;;;7.10;100.00
8641;BME280;4358;42.100;25.222;2023-01-28T13:12:51;99873.56;;;7.10;100.00
8641;BME280;4358;42.100;25.222;2023-01-28T13:15:19;99878.88;;;6.93;100.00
8641;BME280;4358;42.100;25.222;2023-01-28T13:17:56;99873.22;;;6.83;100.00
8641;BME280;4358;42.100;25.222;2023-01-28T13:20:35;99865.81;;;6.74;100.00
8641;BME280;4358;42.100;25.222;2023-01-28T13:23:04;99879.69;;;6.77;100.00
8641;BME280;4358;42.100;25.222;2023-01-28T13:25:33;99892.41;;;6.69;100.00
8641;BME280;4358;42.100;25.222;2023-01-28T13:28:03;99878.75;;;6.61;100.00
8641;BME280;4358;42.100;25.222;2023-01-28T13:30:32;99893.72;;;6.61;100.00